sensor_id;sensor_type;location;lat;lon;timestamp;P1;durP1;ratioP1;P2;durP2;ratioP2
29210;SDS011;16250;49.932;10.980;2023-08-01T00:01:41;11.63;;;7.65;;
29210;SDS011;16250;49.932;10.980;2023-08-01T00:04:07;18.35;;;8.45;;
29210;SDS011;16250;49.932;10.980;2023-08-01T00:06:32;15.25;;;9.00;;
29210;SDS011;16250;49.932;10.980;2023-08-01T00:08:57;13.80;;;8.43;;
29210;SDS011;16250;49.932;10.980;2023-08-01T00:11:23;13.77;;;8.10;;
29210;SDS011;16250;49.932;10.980;2023-08-01T00:13:48;15.65;;;8.80;;
29210;SDS011;16250;49.932;10.980;2023-08-01T00:16:14;11.93;;;7.82;;
29210;SDS011;16250;49.932;10.980;2023-08-01T00:18:39;12.82;;;8.63;;
29210;SDS011;16250;49.932;10.980;2023-08-01T00:21:04;12.95;;;8.10;;
29210;SDS011;16250;49.932;10.980;2023-08-01T00:23:30;10.93;;;8.55;;
29210;SDS011;16250;49.932;10.980;2023-08-01T00:25:57;13.68;;;8.60;;
29210;SDS011;16250;49.932;10.980;2023-08-01T00:28:23;12.07;;;8.30;;
29210;SDS011;16250;49.932;10.980;2023-08-01T00:31:01;12.70;;;8.65;;
29210;SDS011;16250;49.932;10.980;2023-08-01T00:33:28;14.05;;;9.18;;
29210;SDS011;16250;49.932;10.980;2023-08-01T00:35:54;16.38;;;9.50;;
29210;SDS011;16250;49.932;10.980;2023-08-01T00:38:19;14.85;;;9.30;;
29210;SDS011;16250;49.932;10.980;2023-08-01T00:40:45;14.65;;;8.77;;
29210;SDS011;16250;49.932;10.980;2023-08-01T00:43:10;12.07;;;7.88;;
29210;SDS011;16250;49.932;10.980;2023-08-01T00:45:36;11.75;;;8.10;;
29210;SDS011;16250;49.932;10.980;2023-08-01T00:48:01;14.63;;;8.27;;
29210;SDS011;16250;49.932;10.980;2023-08-01T00:50:27;12.90;;;8.98;;
29210;SDS011;16250;49.932;10.980;2023-08-01T00:52:53;14.50;;;8.82;;
29210;SDS011;16250;49.932;10.980;2023-08-01T00:55:18;12.43;;;9.55;;
29210;SDS011;16250;49.932;10.980;2023-08-01T00:57:44;13.82;;;9.05;;
29210;SDS011;16250;49.932;10.980;2023-08-01T01:00:10;12.10;;;9.30;;
29210;SDS011;16250;49.932;10.980;2023-08-01T01:02:36;14.95;;;9.32;;
29210;SDS011;16250;49.932;10.980;2023-08-01T01:05:02;17.60;;;10.48;;
29210;SDS011;16250;49.932;10.980;2023-08-01T01:07:29;16.40;;;10.73;;
29210;SDS011;16250;49.932;10.980;2023-08-01T01:09:54;13.73;;;10.00;;
29210;SDS011;16250;49.932;10.980;2023-08-01T01:12:20;14.15;;;9.98;;
29210;SDS011;16250;49.932;10.980;2023-08-01T01:14:46;20.50;;;12.10;;
29210;SDS011;16250;49.932;10.980;2023-08-01T01:17:11;16.48;;;11.23;;
29210;SDS011;16250;49.932;10.980;2023-08-01T01:19:37;18.98;;;11.30;;
29210;SDS011;16250;49.932;10.980;2023-08-01T01:22:06;17.27;;;10.70;;
29210;SDS011;16250;49.932;10.980;2023-08-01T01:24:33;18.52;;;11.18;;
29210;SDS011;16250;49.932;10.980;2023-08-01T01:26:59;19.17;;;11.60;;
29210;SDS011;16250;49.932;10.980;2023-08-01T01:29:27;15.15;;;11.20;;
29210;SDS011;16250;49.932;10.980;2023-08-01T01:31:53;17.90;;;11.02;;
29210;SDS011;16250;49.932;10.980;2023-08-01T01:34:19;20.20;;;11.75;;
29210;SDS011;16250;49.932;10.980;2023-08-01T01:36:44;13.75;;;10.32;;
29210;SDS011;16250;49.932;10.980;2023-08-01T01:39:10;19.92;;;11.88;;
29210;SDS011;16250;49.932;10.980;2023-08-01T01:41:35;19.80;;;11.80;;
29210;SDS011;16250;49.932;10.980;2023-08-01T01:44:00;20.15;;;12.55;;
29210;SDS011;16250;49.932;10.980;2023-08-01T01:46:26;16.23;;;11.45;;
29210;SDS011;16250;49.932;10.980;2023-08-01T01:48:51;17.13;;;11.43;;
29210;SDS011;16250;49.932;10.980;2023-08-01T01:51:17;16.77;;;12.57;;
29210;SDS011;16250;49.932;10.980;2023-08-01T01:53:42;22.02;;;12.27;;
29210;SDS011;16250;49.932;10.980;2023-08-01T01:56:07;13.40;;;11.40;;
29210;SDS011;16250;49.932;10.980;2023-08-01T01:58:34;17.42;;;11.45;;
29210;SDS011;16250;49.932;10.980;2023-08-01T02:00:59;15.93;;;11.10;;
29210;SDS011;16250;49.932;10.980;2023-08-01T02:03:25;21.25;;;11.43;;
29210;SDS011;16250;49.932;10.980;2023-08-01T02:05:50;17.30;;;11.13;;
29210;SDS011;16250;49.932;10.980;2023-08-01T02:08:17;16.13;;;11.05;;
29210;SDS011;16250;49.932;10.980;2023-08-01T02:10:42;15.77;;;11.02;;
29210;SDS011;16250;49.932;10.980;2023-08-01T02:13:08;18.83;;;11.68;;
29210;SDS011;16250;49.932;10.980;2023-08-01T02:15:34;16.60;;;11.30;;
29210;SDS011;16250;49.932;10.980;2023-08-01T02:17:59;17.20;;;10.25;;
29210;SDS011;16250;49.932;10.980;2023-08-01T02:20:24;18.48;;;11.98;;
29210;SDS011;16250;49.932;10.980;2023-08-01T02:22:51;18.27;;;12.15;;
29210;SDS011;16250;49.932;10.980;2023-08-01T02:25:17;19.08;;;13.25;;
29210;SDS011;16250;49.932;10.980;2023-08-01T02:27:42;18.10;;;12.07;;
29210;SDS011;16250;49.932;10.980;2023-08-01T02:30:08;16.77;;;11.98;;
29210;SDS011;16250;49.932;10.980;2023-08-01T02:32:34;20.65;;;12.20;;
29210;SDS011;16250;49.932;10.980;2023-08-01T02:35:03;19.80;;;12.13;;
29210;SDS011;16250;49.932;10.980;2023-08-01T02:37:28;18.95;;;12.70;;
29210;SDS011;16250;49.932;10.980;2023-08-01T02:39:54;15.85;;;11.48;;
29210;SDS011;16250;49.932;10.980;2023-08-01T02:42:19;14.82;;;11.48;;
29210;SDS011;16250;49.932;10.980;2023-08-01T02:44:45;19.17;;;11.93;;
29210;SDS011;16250;49.932;10.980;2023-08-01T02:47:10;17.40;;;11.73;;
29210;SDS011;16250;49.932;10.980;2023-08-01T02:49:36;19.25;;;12.20;;
29210;SDS011;16250;49.932;10.980;2023-08-01T02:52:01;16.75;;;11.48;;
29210;SDS011;16250;49.932;10.980;2023-08-01T02:54:27;18.90;;;12.50;;
29210;SDS011;16250;49.932;10.980;2023-08-01T02:56:52;17.83;;;10.88;;
29210;SDS011;16250;49.932;10.980;2023-08-01T02:59:18;18.27;;;11.00;;
29210;SDS011;16250;49.932;10.980;2023-08-01T03:01:43;16.70;;;11.02;;
29210;SDS011;16250;49.932;10.980;2023-08-01T03:04:09;20.02;;;12.23;;
29210;SDS011;16250;49.932;10.980;2023-08-01T03:06:37;20.60;;;12.45;;
29210;SDS011;16250;49.932;10.980;2023-08-01T03:09:02;18.35;;;12.05;;
29210;SDS011;16250;49.932;10.980;2023-08-01T03:11:28;18.98;;;12.15;;
29210;SDS011;16250;49.932;10.980;2023-08-01T03:13:54;17.20;;;10.07;;
29210;SDS011;16250;49.932;10.980;2023-08-01T03:16:19;17.83;;;11.38;;
29210;SDS011;16250;49.932;10.980;2023-08-01T03:18:44;15.27;;;10.63;;
29210;SDS011;16250;49.932;10.980;2023-08-01T03:21:10;19.05;;;12.07;;
29210;SDS011;16250;49.932;10.980;2023-08-01T03:23:36;17.42;;;10.95;;
29210;SDS011;16250;49.932;10.980;2023-08-01T03:26:01;17.85;;;12.10;;
29210;SDS011;16250;49.932;10.980;2023-08-01T03:28:27;18.85;;;11.35;;
29210;SDS011;16250;49.932;10.980;2023-08-01T03:30:52;20.42;;;11.88;;
29210;SDS011;16250;49.932;10.980;2023-08-01T03:33:19;21.00;;;13.02;;
29210;SDS011;16250;49.932;10.980;2023-08-01T03:35:45;18.92;;;12.30;;
29210;SDS011;16250;49.932;10.980;2023-08-01T03:38:11;20.80;;;12.13;;
29210;SDS011;16250;49.932;10.980;2023-08-01T03:40:36;20.75;;;12.80;;
29210;SDS011;16250;49.932;10.980;2023-08-01T03:43:02;21.30;;;13.07;;
29210;SDS011;16250;49.932;10.980;2023-08-01T03:45:27;18.63;;;11.35;;
29210;SDS011;16250;49.932;10.980;2023-08-01T03:47:54;15.70;;;11.50;;
29210;SDS011;16250;49.932;10.980;2023-08-01T03:50:20;16.13;;;11.63;;
29210;SDS011;16250;49.932;10.980;2023-08-01T03:52:48;19.30;;;11.35;;
29210;SDS011;16250;49.932;10.980;2023-08-01T03:55:14;18.13;;;10.82;;
29210;SDS011;16250;49.932;10.980;2023-08-01T03:57:40;17.80;;;11.05;;
29210;SDS011;16250;49.932;10.980;2023-08-01T04:00:08;16.98;;;9.75;;
29210;SDS011;16250;49.932;10.980;2023-08-01T04:02:41;15.73;;;10.77;;
29210;SDS011;16250;49.932;10.980;2023-08-01T04:05:07;17.00;;;11.05;;
29210;SDS011;16250;49.932;10.980;2023-08-01T04:07:36;19.27;;;11.57;;
29210;SDS011;16250;49.932;10.980;2023-08-01T04:10:05;17.27;;;10.63;;
29210;SDS011;16250;49.932;10.980;2023-08-01T04:12:32;15.70;;;10.82;;
29210;SDS011;16250;49.932;10.980;2023-08-01T04:14:57;17.55;;;11.30;;
29210;SDS011;16250;49.932;10.980;2023-08-01T04:17:23;14.73;;;10.30;;
29210;SDS011;16250;49.932;10.980;2023-08-01T04:19:48;14.52;;;9.52;;
29210;SDS011;16250;49.932;10.980;2023-08-01T04:22:14;15.90;;;9.70;;
29210;SDS011;16250;49.932;10.980;2023-08-01T04:24:39;13.75;;;9.68;;
29210;SDS011;16250;49.932;10.980;2023-08-01T04:27:05;15.10;;;9.35;;
29210;SDS011;16250;49.932;10.980;2023-08-01T04:29:30;12.82;;;9.50;;
29210;SDS011;16250;49.932;10.980;2023-08-01T04:31:56;16.98;;;10.25;;
29210;SDS011;16250;49.932;10.980;2023-08-01T04:34:21;15.35;;;9.55;;
29210;SDS011;16250;49.932;10.980;2023-08-01T04:36:47;14.77;;;9.25;;
29210;SDS011;16250;49.932;10.980;2023-08-01T04:39:12;14.18;;;9.40;;
29210;SDS011;16250;49.932;10.980;2023-08-01T04:41:38;13.02;;;9.27;;
29210;SDS011;16250;49.932;10.980;2023-08-01T04:44:06;15.25;;;8.38;;
29210;SDS011;16250;49.932;10.980;2023-08-01T04:46:32;15.48;;;9.30;;
29210;SDS011;16250;49.932;10.980;2023-08-01T04:48:57;14.68;;;9.30;;
29210;SDS011;16250;49.932;10.980;2023-08-01T04:51:23;13.70;;;9.45;;
29210;SDS011;16250;49.932;10.980;2023-08-01T04:53:49;13.95;;;9.70;;
29210;SDS011;16250;49.932;10.980;2023-08-01T04:56:15;17.25;;;9.90;;
29210;SDS011;16250;49.932;10.980;2023-08-01T04:58:40;14.25;;;9.20;;
29210;SDS011;16250;49.932;10.980;2023-08-01T05:01:05;14.45;;;10.00;;
29210;SDS011;16250;49.932;10.980;2023-08-01T05:03:31;16.77;;;9.75;;
29210;SDS011;16250;49.932;10.980;2023-08-01T05:05:56;14.50;;;8.85;;
29210;SDS011;16250;49.932;10.980;2023-08-01T05:08:21;16.42;;;9.70;;
29210;SDS011;16250;49.932;10.980;2023-08-01T05:10:47;18.80;;;9.90;;
29210;SDS011;16250;49.932;10.980;2023-08-01T05:13:12;16.25;;;9.63;;
29210;SDS011;16250;49.932;10.980;2023-08-01T05:15:38;18.58;;;10.02;;
29210;SDS011;16250;49.932;10.980;2023-08-01T05:18:03;16.02;;;9.90;;
29210;SDS011;16250;49.932;10.980;2023-08-01T05:20:28;14.50;;;9.27;;
29210;SDS011;16250;49.932;10.980;2023-08-01T05:22:57;17.17;;;9.63;;
29210;SDS011;16250;49.932;10.980;2023-08-01T05:25:23;15.60;;;9.82;;
29210;SDS011;16250;49.932;10.980;2023-08-01T05:27:48;15.57;;;9.35;;
29210;SDS011;16250;49.932;10.980;2023-08-01T05:30:14;13.25;;;9.10;;
29210;SDS011;16250;49.932;10.980;2023-08-01T05:32:39;15.02;;;9.50;;
29210;SDS011;16250;49.932;10.980;2023-08-01T05:35:05;11.68;;;9.18;;
29210;SDS011;16250;49.932;10.980;2023-08-01T05:37:31;13.93;;;9.40;;
29210;SDS011;16250;49.932;10.980;2023-08-01T05:39:57;14.05;;;8.63;;
29210;SDS011;16250;49.932;10.980;2023-08-01T05:42:22;12.65;;;8.38;;
29210;SDS011;16250;49.932;10.980;2023-08-01T05:44:47;12.85;;;8.75;;
29210;SDS011;16250;49.932;10.980;2023-08-01T05:47:13;13.68;;;8.10;;
29210;SDS011;16250;49.932;10.980;2023-08-01T05:49:38;15.00;;;8.90;;
29210;SDS011;16250;49.932;10.980;2023-08-01T05:52:04;14.52;;;8.20;;
29210;SDS011;16250;49.932;10.980;2023-08-01T05:54:29;11.32;;;7.30;;
29210;SDS011;16250;49.932;10.980;2023-08-01T05:56:55;12.23;;;8.10;;
29210;SDS011;16250;49.932;10.980;2023-08-01T05:59:20;10.27;;;7.70;;
29210;SDS011;16250;49.932;10.980;2023-08-01T06:01:46;11.88;;;7.65;;
29210;SDS011;16250;49.932;10.980;2023-08-01T06:04:11;10.73;;;7.35;;
29210;SDS011;16250;49.932;10.980;2023-08-01T06:06:37;14.32;;;8.45;;
29210;SDS011;16250;49.932;10.980;2023-08-01T06:09:02;13.88;;;8.85;;
29210;SDS011;16250;49.932;10.980;2023-08-01T06:11:28;13.27;;;8.13;;
29210;SDS011;16250;49.932;10.980;2023-08-01T06:13:53;14.80;;;8.10;;
29210;SDS011;16250;49.932;10.980;2023-08-01T06:16:19;11.98;;;8.25;;
29210;SDS011;16250;49.932;10.980;2023-08-01T06:18:44;13.07;;;7.57;;
29210;SDS011;16250;49.932;10.980;2023-08-01T06:21:09;11.88;;;7.28;;
29210;SDS011;16250;49.932;10.980;2023-08-01T06:23:35;12.88;;;8.05;;
29210;SDS011;16250;49.932;10.980;2023-08-01T06:26:00;11.05;;;7.22;;
29210;SDS011;16250;49.932;10.980;2023-08-01T06:28:25;11.50;;;7.15;;
29210;SDS011;16250;49.932;10.980;2023-08-01T06:30:51;11.00;;;7.65;;
29210;SDS011;16250;49.932;10.980;2023-08-01T06:33:16;10.00;;;7.05;;
29210;SDS011;16250;49.932;10.980;2023-08-01T06:35:42;13.65;;;7.60;;
29210;SDS011;16250;49.932;10.980;2023-08-01T06:38:07;13.05;;;7.80;;
29210;SDS011;16250;49.932;10.980;2023-08-01T06:40:33;12.90;;;7.93;;
29210;SDS011;16250;49.932;10.980;2023-08-01T06:42:58;9.25;;;7.25;;
29210;SDS011;16250;49.932;10.980;2023-08-01T06:45:23;11.73;;;6.90;;
29210;SDS011;16250;49.932;10.980;2023-08-01T06:47:49;11.23;;;6.82;;
29210;SDS011;16250;49.932;10.980;2023-08-01T06:50:14;12.40;;;7.20;;
29210;SDS011;16250;49.932;10.980;2023-08-01T06:52:40;10.82;;;6.82;;
29210;SDS011;16250;49.932;10.980;2023-08-01T06:55:05;11.77;;;7.32;;
29210;SDS011;16250;49.932;10.980;2023-08-01T06:57:31;8.68;;;6.72;;
29210;SDS011;16250;49.932;10.980;2023-08-01T06:59:56;13.77;;;7.80;;
29210;SDS011;16250;49.932;10.980;2023-08-01T07:02:21;11.18;;;6.82;;
29210;SDS011;16250;49.932;10.980;2023-08-01T07:04:47;10.50;;;7.50;;
29210;SDS011;16250;49.932;10.980;2023-08-01T07:07:12;10.07;;;7.55;;
29210;SDS011;16250;49.932;10.980;2023-08-01T07:09:38;9.40;;;6.80;;
29210;SDS011;16250;49.932;10.980;2023-08-01T07:12:04;10.23;;;6.28;;
29210;SDS011;16250;49.932;10.980;2023-08-01T07:14:30;11.10;;;7.05;;
29210;SDS011;16250;49.932;10.980;2023-08-01T07:16:55;9.88;;;7.00;;
29210;SDS011;16250;49.932;10.980;2023-08-01T07:19:21;12.02;;;7.47;;
29210;SDS011;16250;49.932;10.980;2023-08-01T07:21:46;12.27;;;6.47;;
29210;SDS011;16250;49.932;10.980;2023-08-01T07:24:13;9.98;;;6.32;;
29210;SDS011;16250;49.932;10.980;2023-08-01T07:26:40;10.07;;;6.20;;
29210;SDS011;16250;49.932;10.980;2023-08-01T07:29:05;11.02;;;6.80;;
29210;SDS011;16250;49.932;10.980;2023-08-01T07:31:33;10.93;;;7.22;;
29210;SDS011;16250;49.932;10.980;2023-08-01T07:33:58;10.38;;;6.65;;
29210;SDS011;16250;49.932;10.980;2023-08-01T07:36:24;9.70;;;6.80;;
29210;SDS011;16250;49.932;10.980;2023-08-01T07:38:49;10.32;;;6.95;;
29210;SDS011;16250;49.932;10.980;2023-08-01T07:41:14;8.95;;;6.85;;
29210;SDS011;16250;49.932;10.980;2023-08-01T07:43:40;8.60;;;6.90;;
29210;SDS011;16250;49.932;10.980;2023-08-01T07:46:05;9.35;;;7.10;;
29210;SDS011;16250;49.932;10.980;2023-08-01T07:48:33;8.73;;;6.35;;
29210;SDS011;16250;49.932;10.980;2023-08-01T07:50:59;10.57;;;6.63;;
29210;SDS011;16250;49.932;10.980;2023-08-01T07:53:25;12.07;;;6.90;;
29210;SDS011;16250;49.932;10.980;2023-08-01T07:55:51;11.60;;;7.03;;
29210;SDS011;16250;49.932;10.980;2023-08-01T07:58:17;7.97;;;6.43;;
29210;SDS011;16250;49.932;10.980;2023-08-01T08:00:42;10.23;;;6.65;;
29210;SDS011;16250;49.932;10.980;2023-08-01T08:03:08;11.63;;;6.78;;
29210;SDS011;16250;49.932;10.980;2023-08-01T08:05:33;9.00;;;6.65;;
29210;SDS011;16250;49.932;10.980;2023-08-01T08:08:01;8.60;;;7.00;;
29210;SDS011;16250;49.932;10.980;2023-08-01T08:10:27;10.10;;;7.10;;
29210;SDS011;16250;49.932;10.980;2023-08-01T08:12:52;9.73;;;7.05;;
29210;SDS011;16250;49.932;10.980;2023-08-01T08:15:17;10.40;;;7.15;;
29210;SDS011;16250;49.932;10.980;2023-08-01T08:17:44;9.88;;;7.85;;
29210;SDS011;16250;49.932;10.980;2023-08-01T08:20:09;9.32;;;7.10;;
29210;SDS011;16250;49.932;10.980;2023-08-01T08:22:35;10.48;;;7.50;;
29210;SDS011;16250;49.932;10.980;2023-08-01T08:25:00;9.63;;;6.53;;
29210;SDS011;16250;49.932;10.980;2023-08-01T08:27:26;12.30;;;7.95;;
29210;SDS011;16250;49.932;10.980;2023-08-01T08:29:51;10.77;;;7.53;;
29210;SDS011;16250;49.932;10.980;2023-08-01T08:32:17;10.95;;;8.07;;
29210;SDS011;16250;49.932;10.980;2023-08-01T08:34:42;10.18;;;7.25;;
29210;SDS011;16250;49.932;10.980;2023-08-01T08:37:07;10.43;;;7.65;;
29210;SDS011;16250;49.932;10.980;2023-08-01T08:39:33;10.43;;;8.10;;
29210;SDS011;16250;49.932;10.980;2023-08-01T08:41:58;9.48;;;7.20;;
29210;SDS011;16250;49.932;10.980;2023-08-01T08:44:24;10.95;;;8.02;;
29210;SDS011;16250;49.932;10.980;2023-08-01T08:46:50;12.73;;;7.57;;
29210;SDS011;16250;49.932;10.980;2023-08-01T08:49:17;10.27;;;6.97;;
29210;SDS011;16250;49.932;10.980;2023-08-01T08:51:45;9.13;;;6.78;;
29210;SDS011;16250;49.932;10.980;2023-08-01T08:54:11;9.45;;;6.40;;
29210;SDS011;16250;49.932;10.980;2023-08-01T08:56:36;8.38;;;6.55;;
29210;SDS011;16250;49.932;10.980;2023-08-01T08:59:03;8.50;;;6.43;;
29210;SDS011;16250;49.932;10.980;2023-08-01T09:01:29;9.85;;;6.60;;
29210;SDS011;16250;49.932;10.980;2023-08-01T09:03:56;9.75;;;6.75;;
29210;SDS011;16250;49.932;10.980;2023-08-01T09:06:28;9.65;;;6.95;;
29210;SDS011;16250;49.932;10.980;2023-08-01T09:09:01;7.45;;;6.35;;
29210;SDS011;16250;49.932;10.980;2023-08-01T09:12:03;8.75;;;6.63;;
29210;SDS011;16250;49.932;10.980;2023-08-01T09:14:22;11.23;;;6.95;;
29210;SDS011;16250;49.932;10.980;2023-08-01T09:16:48;9.48;;;7.30;;
29210;SDS011;16250;49.932;10.980;2023-08-01T09:19:17;10.55;;;7.82;;
29210;SDS011;16250;49.932;10.980;2023-08-01T09:21:46;12.85;;;8.18;;
29210;SDS011;16250;49.932;10.980;2023-08-01T09:24:13;11.43;;;6.97;;
29210;SDS011;16250;49.932;10.980;2023-08-01T09:26:40;11.05;;;7.72;;
29210;SDS011;16250;49.932;10.980;2023-08-01T09:29:07;9.63;;;7.20;;
29210;SDS011;16250;49.932;10.980;2023-08-01T09:31:33;9.88;;;8.05;;
29210;SDS011;16250;49.932;10.980;2023-08-01T09:34:00;12.65;;;8.60;;
29210;SDS011;16250;49.932;10.980;2023-08-01T09:36:26;12.50;;;7.75;;
29210;SDS011;16250;49.932;10.980;2023-08-01T09:38:51;10.18;;;7.38;;
29210;SDS011;16250;49.932;10.980;2023-08-01T09:41:17;12.07;;;7.72;;
29210;SDS011;16250;49.932;10.980;2023-08-01T09:43:44;10.18;;;6.65;;
29210;SDS011;16250;49.932;10.980;2023-08-01T09:46:11;10.55;;;7.70;;
29210;SDS011;16250;49.932;10.980;2023-08-01T09:48:36;9.30;;;6.95;;
29210;SDS011;16250;49.932;10.980;2023-08-01T09:51:05;9.02;;;6.70;;
29210;SDS011;16250;49.932;10.980;2023-08-01T09:53:36;8.43;;;6.38;;
29210;SDS011;16250;49.932;10.980;2023-08-01T09:56:15;10.70;;;6.35;;
29210;SDS011;16250;49.932;10.980;2023-08-01T09:58:43;8.13;;;6.07;;
29210;SDS011;16250;49.932;10.980;2023-08-01T10:01:10;7.72;;;5.57;;
29210;SDS011;16250;49.932;10.980;2023-08-01T10:03:36;9.80;;;5.22;;
29210;SDS011;16250;49.932;10.980;2023-08-01T10:06:01;5.68;;;5.00;;
29210;SDS011;16250;49.932;10.980;2023-08-01T10:08:28;5.53;;;4.40;;
29210;SDS011;16250;49.932;10.980;2023-08-01T10:10:54;7.82;;;4.82;;
29210;SDS011;16250;49.932;10.980;2023-08-01T10:13:23;7.65;;;5.22;;
29210;SDS011;16250;49.932;10.980;2023-08-01T10:15:49;4.78;;;4.22;;
29210;SDS011;16250;49.932;10.980;2023-08-01T10:18:16;4.85;;;4.40;;
29210;SDS011;16250;49.932;10.980;2023-08-01T10:20:42;5.88;;;4.97;;
29210;SDS011;16250;49.932;10.980;2023-08-01T10:23:08;6.30;;;4.72;;
29210;SDS011;16250;49.932;10.980;2023-08-01T10:25:34;8.05;;;4.82;;
29210;SDS011;16250;49.932;10.980;2023-08-01T10:28:00;6.93;;;4.50;;
29210;SDS011;16250;49.932;10.980;2023-08-01T10:30:27;6.35;;;4.65;;
29210;SDS011;16250;49.932;10.980;2023-08-01T10:32:54;4.03;;;2.95;;
29210;SDS011;16250;49.932;10.980;2023-08-01T10:35:31;3.13;;;2.75;;
29210;SDS011;16250;49.932;10.980;2023-08-01T10:40:35;3.13;;;2.40;;
29210;SDS011;16250;49.932;10.980;2023-08-01T10:43:02;4.97;;;2.15;;
29210;SDS011;16250;49.932;10.980;2023-08-01T10:45:27;3.60;;;2.05;;
29210;SDS011;16250;49.932;10.980;2023-08-01T10:47:54;3.40;;;2.20;;
29210;SDS011;16250;49.932;10.980;2023-08-01T10:50:31;2.97;;;1.95;;
29210;SDS011;16250;49.932;10.980;2023-08-01T10:53:07;3.30;;;2.10;;
29210;SDS011;16250;49.932;10.980;2023-08-01T10:55:40;2.85;;;2.25;;
29210;SDS011;16250;49.932;10.980;2023-08-01T10:58:07;3.22;;;2.25;;
29210;SDS011;16250;49.932;10.980;2023-08-01T11:00:33;4.20;;;2.70;;
29210;SDS011;16250;49.932;10.980;2023-08-01T11:02:58;2.95;;;2.40;;
29210;SDS011;16250;49.932;10.980;2023-08-01T11:05:23;3.78;;;2.60;;
29210;SDS011;16250;49.932;10.980;2023-08-01T11:07:54;5.10;;;2.75;;
29210;SDS011;16250;49.932;10.980;2023-08-01T11:10:21;2.70;;;2.50;;
29210;SDS011;16250;49.932;10.980;2023-08-01T11:12:47;3.08;;;2.75;;
29210;SDS011;16250;49.932;10.980;2023-08-01T11:15:13;4.40;;;3.05;;
29210;SDS011;16250;49.932;10.980;2023-08-01T11:17:39;3.10;;;2.80;;
29210;SDS011;16250;49.932;10.980;2023-08-01T11:20:10;4.88;;;3.10;;
29210;SDS011;16250;49.932;10.980;2023-08-01T11:22:58;5.25;;;3.00;;
29210;SDS011;16250;49.932;10.980;2023-08-01T11:25:33;3.95;;;3.00;;
29210;SDS011;16250;49.932;10.980;2023-08-01T11:28:03;4.65;;;3.10;;
29210;SDS011;16250;49.932;10.980;2023-08-01T11:30:31;4.20;;;2.78;;
29210;SDS011;16250;49.932;10.980;2023-08-01T11:32:57;3.83;;;2.70;;
29210;SDS011;16250;49.932;10.980;2023-08-01T11:35:23;5.63;;;3.13;;
29210;SDS011;16250;49.932;10.980;2023-08-01T11:37:49;5.50;;;2.90;;
29210;SDS011;16250;49.932;10.980;2023-08-01T11:40:15;4.57;;;3.08;;
29210;SDS011;16250;49.932;10.980;2023-08-01T11:42:40;5.65;;;3.15;;
29210;SDS011;16250;49.932;10.980;2023-08-01T11:45:09;5.45;;;3.40;;
29210;SDS011;16250;49.932;10.980;2023-08-01T11:47:44;3.10;;;2.80;;
29210;SDS011;16250;49.932;10.980;2023-08-01T11:50:10;4.68;;;2.80;;
29210;SDS011;16250;49.932;10.980;2023-08-01T11:52:35;3.10;;;2.80;;
29210;SDS011;16250;49.932;10.980;2023-08-01T11:55:00;3.20;;;2.80;;
29210;SDS011;16250;49.932;10.980;2023-08-01T11:57:26;3.75;;;2.95;;
29210;SDS011;16250;49.932;10.980;2023-08-01T11:59:55;5.82;;;2.85;;
29210;SDS011;16250;49.932;10.980;2023-08-01T12:02:28;2.80;;;2.50;;
29210;SDS011;16250;49.932;10.980;2023-08-01T12:04:55;4.10;;;2.83;;
29210;SDS011;16250;49.932;10.980;2023-08-01T12:07:20;3.53;;;2.70;;
29210;SDS011;16250;49.932;10.980;2023-08-01T12:09:59;2.92;;;2.17;;
29210;SDS011;16250;49.932;10.980;2023-08-01T12:12:28;3.60;;;2.50;;
29210;SDS011;16250;49.932;10.980;2023-08-01T12:14:54;4.97;;;2.75;;
29210;SDS011;16250;49.932;10.980;2023-08-01T12:17:20;3.53;;;2.42;;
29210;SDS011;16250;49.932;10.980;2023-08-01T12:19:46;3.25;;;2.30;;
29210;SDS011;16250;49.932;10.980;2023-08-01T12:22:12;2.90;;;2.15;;
29210;SDS011;16250;49.932;10.980;2023-08-01T12:24:37;3.55;;;2.65;;
29210;SDS011;16250;49.932;10.980;2023-08-01T12:27:07;3.78;;;2.17;;
29210;SDS011;16250;49.932;10.980;2023-08-01T12:29:33;3.70;;;2.10;;
29210;SDS011;16250;49.932;10.980;2023-08-01T12:31:58;3.92;;;2.00;;
29210;SDS011;16250;49.932;10.980;2023-08-01T12:34:24;2.28;;;2.00;;
29210;SDS011;16250;49.932;10.980;2023-08-01T12:36:49;3.92;;;1.83;;
29210;SDS011;16250;49.932;10.980;2023-08-01T12:39:14;4.63;;;2.00;;
29210;SDS011;16250;49.932;10.980;2023-08-01T12:41:40;2.55;;;2.13;;
29210;SDS011;16250;49.932;10.980;2023-08-01T12:44:05;3.70;;;2.30;;
29210;SDS011;16250;49.932;10.980;2023-08-01T12:46:30;2.35;;;2.10;;
29210;SDS011;16250;49.932;10.980;2023-08-01T12:48:56;3.65;;;1.70;;
29210;SDS011;16250;49.932;10.980;2023-08-01T12:51:21;2.55;;;1.70;;
29210;SDS011;16250;49.932;10.980;2023-08-01T12:53:47;2.70;;;1.58;;
29210;SDS011;16250;49.932;10.980;2023-08-01T12:56:15;1.55;;;1.40;;
29210;SDS011;16250;49.932;10.980;2023-08-01T12:58:41;1.75;;;1.50;;
29210;SDS011;16250;49.932;10.980;2023-08-01T13:01:06;1.38;;;1.27;;
29210;SDS011;16250;49.932;10.980;2023-08-01T13:03:32;1.92;;;1.25;;
29210;SDS011;16250;49.932;10.980;2023-08-01T13:05:58;2.95;;;1.60;;
29210;SDS011;16250;49.932;10.980;2023-08-01T13:08:23;2.30;;;1.55;;
29210;SDS011;16250;49.932;10.980;2023-08-01T13:10:49;1.60;;;1.40;;
29210;SDS011;16250;49.932;10.980;2023-08-01T13:13:18;2.08;;;1.20;;
29210;SDS011;16250;49.932;10.980;2023-08-01T13:15:43;3.08;;;1.63;;
29210;SDS011;16250;49.932;10.980;2023-08-01T13:18:10;1.50;;;1.40;;
29210;SDS011;16250;49.932;10.980;2023-08-01T13:20:35;2.08;;;1.67;;
29210;SDS011;16250;49.932;10.980;2023-08-01T13:23:01;2.97;;;1.50;;
29210;SDS011;16250;49.932;10.980;2023-08-01T13:25:27;1.42;;;1.30;;
29210;SDS011;16250;49.932;10.980;2023-08-01T13:27:52;2.03;;;1.45;;
29210;SDS011;16250;49.932;10.980;2023-08-01T13:30:18;3.53;;;1.60;;
29210;SDS011;16250;49.932;10.980;2023-08-01T13:32:44;2.13;;;1.40;;
29210;SDS011;16250;49.932;10.980;2023-08-01T13:35:13;1.80;;;1.20;;
29210;SDS011;16250;49.932;10.980;2023-08-01T13:37:39;1.95;;;1.20;;
29210;SDS011;16250;49.932;10.980;2023-08-01T13:40:05;1.65;;;1.50;;
29210;SDS011;16250;49.932;10.980;2023-08-01T13:42:30;1.42;;;1.20;;
29210;SDS011;16250;49.932;10.980;2023-08-01T13:44:56;1.35;;;1.25;;
29210;SDS011;16250;49.932;10.980;2023-08-01T13:47:21;3.58;;;1.20;;
29210;SDS011;16250;49.932;10.980;2023-08-01T13:49:47;1.30;;;1.15;;
29210;SDS011;16250;49.932;10.980;2023-08-01T13:52:12;2.20;;;1.10;;
29210;SDS011;16250;49.932;10.980;2023-08-01T13:54:38;2.92;;;1.30;;
29210;SDS011;16250;49.932;10.980;2023-08-01T13:57:03;1.42;;;1.30;;
29210;SDS011;16250;49.932;10.980;2023-08-01T13:59:28;1.70;;;1.20;;
29210;SDS011;16250;49.932;10.980;2023-08-01T14:01:54;1.60;;;1.17;;
29210;SDS011;16250;49.932;10.980;2023-08-01T14:04:20;2.08;;;1.20;;
29210;SDS011;16250;49.932;10.980;2023-08-01T14:06:45;1.38;;;0.90;;
29210;SDS011;16250;49.932;10.980;2023-08-01T14:09:11;1.85;;;1.13;;
29210;SDS011;16250;49.932;10.980;2023-08-01T14:11:37;3.08;;;1.80;;
29210;SDS011;16250;49.932;10.980;2023-08-01T14:14:02;5.50;;;1.92;;
29210;SDS011;16250;49.932;10.980;2023-08-01T14:16:29;2.70;;;1.88;;
29210;SDS011;16250;49.932;10.980;2023-08-01T14:18:54;3.05;;;2.17;;
29210;SDS011;16250;49.932;10.980;2023-08-01T14:21:20;5.53;;;2.22;;